Time;durP1;ratioP1;P1;durP2;ratioP2;P2;SDS_P1;SDS_P2;PMS_P1;PMS_P2;Temp;Humidity;BMP_temperature;BMP_pressure;BME280_temperature;BME280_humidity;BME280_pressure;Samples;Min_cycle;Max_cycle;Signal;HPM_P1;HPM_P2
2022/01/19 00:00:51;;;;;;;9.60;5.75;;;8.80;79.40;;;;;;5030875;28;20483;-84
2022/01/19 00:03:20;;;;;;;10.95;7.03;;;8.80;79.40;;;;;;5033918;28;20060;-88
2022/01/19 00:05:46;;;;;;;10.65;7.05;;;8.80;79.40;;;;;;5031742;28;20044;-84
2022/01/19 00:08:18;;;;;;;8.85;6.20;;;8.80;79.40;;;;;;5034152;28;20030;-85
2022/01/19 00:10:44;;;;;;;9.15;6.53;;;8.80;79.40;;;;;;5033964;28;20629;-85
2022/01/19 00:13:11;;;;;;;10.70;7.15;;;8.80;79.40;;;;;;5017141;28;20072;-85
2022/01/19 00:15:39;;;;;;;10.13;7.07;;;8.70;79.40;;;;;;5034098;28;20029;-84
2022/01/19 00:18:05;;;;;;;9.93;6.57;;;8.80;79.40;;;;;;5009564;28;20021;-84
2022/01/19 00:20:35;;;;;;;9.85;6.85;;;8.80;79.40;;;;;;5050085;28;20532;-84
2022/01/19 00:23:03;;;;;;;9.13;6.80;;;8.80;79.40;;;;;;5011262;28;20021;-84
2022/01/19 00:25:32;;;;;;;11.15;6.68;;;8.80;79.40;;;;;;5033178;28;20022;-85
2022/01/19 00:27:59;;;;;;;9.65;6.85;;;8.70;79.40;;;;;;5031769;28;20029;-85
2022/01/19 00:30:27;;;;;;;9.25;6.40;;;8.70;79.40;;;;;;5032985;28;20124;-84
2022/01/19 00:32:56;;;;;;;9.95;6.38;;;8.80;79.50;;;;;;5025613;28;20030;-86
2022/01/19 00:35:23;;;;;;;9.18;6.72;;;8.70;79.40;;;;;;5016619;28;20085;-85
2022/01/19 00:37:49;;;;;;;9.40;6.53;;;8.70;79.40;;;;;;5033270;28;20053;-84
2022/01/19 00:40:15;;;;;;;9.88;7.05;;;8.70;79.40;;;;;;5014841;28;20033;-83
2022/01/19 00:42:43;;;;;;;10.18;6.78;;;8.70;79.40;;;;;;5016514;28;20021;-91
2022/01/19 00:45:10;;;;;;;9.20;6.85;;;8.70;79.40;;;;;;5021653;28;20029;-83
2022/01/19 00:47:36;;;;;;;10.55;6.32;;;8.70;79.40;;;;;;5038350;28;20034;-83
2022/01/19 00:50:05;;;;;;;9.25;6.68;;;8.70;79.40;;;;;;5036186;28;20536;-86
2022/01/19 00:52:31;;;;;;;10.77;6.95;;;8.70;79.40;;;;;;5015814;28;20085;-84
2022/01/19 00:54:57;;;;;;;9.60;6.55;;;8.70;79.40;;;;;;5031317;28;20516;-84
2022/01/19 00:57:23;;;;;;;8.93;6.55;;;8.70;79.40;;;;;;5031681;28;20056;-83
2022/01/19 00:59:52;;;;;;;10.15;7.32;;;8.70;79.40;;;;;;5032242;28;20482;-84
2022/01/19 01:02:18;;;;;;;10.00;7.15;;;8.70;79.40;;;;;;5032991;28;20432;-83
2022/01/19 01:04:44;;;;;;;10.60;7.20;;;8.70;79.40;;;;;;5022781;28;20045;-87
2022/01/19 01:07:12;;;;;;;10.10;7.15;;;8.70;79.40;;;;;;5032429;28;20056;-85
2022/01/19 01:09:39;;;;;;;9.93;7.10;;;8.70;79.40;;;;;;5031614;28;20018;-84
2022/01/19 01:12:13;;;;;;;10.05;6.97;;;8.70;79.40;;;;;;5031924;28;20037;-84
2022/01/19 01:20:13;;;;;;;9.85;6.93;;;8.60;79.30;;;;;;5032348;28;20064;-84
2022/01/19 01:22:41;;;;;;;11.68;7.40;;;8.60;79.30;;;;;;5032395;28;20378;-88
2022/01/19 01:25:07;;;;;;;9.52;6.97;;;8.60;79.40;;;;;;5046501;28;20069;-84
2022/01/19 01:27:34;;;;;;;10.10;6.78;;;8.60;79.40;;;;;;5032185;28;20025;-84
2022/01/19 01:30:05;;;;;;;10.68;7.47;;;8.60;79.30;;;;;;5010032;28;20491;-84
2022/01/19 01:32:31;;;;;;;10.38;7.70;;;8.60;79.40;;;;;;5049123;28;20082;-86
2022/01/19 01:34:57;;;;;;;10.82;7.55;;;8.60;79.30;;;;;;5015342;28;20021;-84
2022/01/19 01:37:23;;;;;;;10.63;6.95;;;8.50;79.20;;;;;;5032535;28;20029;-84
2022/01/19 01:39:49;;;;;;;10.15;7.03;;;8.60;79.30;;;;;;5016105;28;20029;-84
2022/01/19 01:42:20;;;;;;;9.82;7.32;;;8.50;79.20;;;;;;5019107;28;20029;-84
2022/01/19 01:44:51;;;;;;;11.82;8.07;;;8.50;79.30;;;;;;5029268;28;20022;-84
2022/01/19 01:47:19;;;;;;;10.45;7.35;;;8.50;79.30;;;;;;5015873;28;20025;-84
2022/01/19 01:55:21;;;;;;;9.85;6.53;;;8.40;79.20;;;;;;5028071;28;20506;-84
2022/01/19 01:57:50;;;;;;;10.43;7.30;;;8.40;79.30;;;;;;5031111;28;20037;-84
2022/01/19 02:00:21;;;;;;;11.30;7.20;;;8.40;79.30;;;;;;5030725;28;20041;-84
2022/01/19 02:02:54;;;;;;;11.13;7.10;;;8.40;79.30;;;;;;5015521;28;20025;-84
2022/01/19 02:05:22;;;;;;;11.65;7.25;;;8.30;79.30;;;;;;5030572;28;20433;-83
2022/01/19 02:08:19;;;;;;;12.15;7.47;;;8.30;79.30;;;;;;5031426;28;20455;-85
2022/01/19 02:11:17;;;;;;;10.73;7.45;;;8.30;79.30;;;;;;5044485;28;20129;-84
2022/01/19 02:21:38;;;;;;;9.88;6.85;;;8.30;79.30;;;;;;5028238;28;20030;-84
2022/01/19 02:24:08;;;;;;;11.32;7.25;;;8.20;79.30;;;;;;5012784;28;20078;-84
2022/01/19 02:29:59;;;;;;;9.43;6.50;;;8.20;79.30;;;;;;5030125;28;20026;-84
2022/01/19 02:40:28;;;;;;;10.20;6.38;;;8.20;79.30;;;;;;5029568;28;20057;-86
2022/01/19 02:51:02;;;;;;;9.68;6.30;;;8.10;79.20;;;;;;5030175;28;20033;-84
2022/01/19 02:53:29;;;;;;;8.13;5.88;;;8.10;79.40;;;;;;5030151;28;20017;-84
2022/01/19 02:55:55;;;;;;;9.40;6.80;;;8.00;79.40;;;;;;5030316;28;20071;-83
2022/01/19 02:58:23;;;;;;;10.18;6.80;;;8.00;79.40;;;;;;5032319;28;20033;-84
2022/01/19 03:08:43;;;;;;;10.73;7.35;;;8.00;79.40;;;;;;5024994;28;20139;-83
2022/01/19 03:09:14;;;;;;;9.93;6.43;;;8.00;79.30;;;;;;5031531;28;20060;-83
2022/01/19 03:11:40;;;;;;;10.05;7.35;;;8.00;79.30;;;;;;5028534;28;20074;-83
2022/01/19 03:14:08;;;;;;;9.88;6.97;;;8.00;79.40;;;;;;5014267;28;20029;-83
2022/01/19 03:16:35;;;;;;;10.27;7.20;;;8.00;79.40;;;;;;5031053;28;20034;-83
2022/01/19 03:19:02;;;;;;;11.95;8.02;;;8.00;79.40;;;;;;5014279;28;20368;-82
2022/01/19 03:21:28;;;;;;;10.73;7.47;;;8.00;79.40;;;;;;5044489;28;20120;-83
2022/01/19 03:23:54;;;;;;;11.18;7.65;;;7.90;79.30;;;;;;5028329;28;20108;-85
2022/01/19 03:26:21;;;;;;;11.32;7.15;;;7.90;79.30;;;;;;5032657;28;20030;-87
2022/01/19 03:29:05;;;;;;;10.45;7.65;;;7.90;79.30;;;;;;5015235;28;20021;-84
2022/01/19 03:31:33;;;;;;;8.90;6.53;;;7.90;79.30;;;;;;5020061;28;20052;-85
2022/01/19 03:34:01;;;;;;;11.25;7.60;;;7.90;79.30;;;;;;5040592;28;20022;-86
2022/01/19 03:36:30;;;;;;;10.52;7.05;;;7.90;79.30;;;;;;5034993;28;20033;-86
2022/01/19 03:38:56;;;;;;;11.20;7.57;;;7.80;79.20;;;;;;5034411;28;20052;-87
2022/01/19 03:41:22;;;;;;;10.80;7.15;;;7.80;79.20;;;;;;5034106;28;20029;-85
2022/01/19 03:43:48;;;;;;;12.05;7.72;;;7.80;79.20;;;;;;5030739;28;20025;-85
2022/01/19 03:46:18;;;;;;;9.85;7.22;;;7.80;79.20;;;;;;5028653;28;20363;-84
2022/01/19 03:48:58;;;;;;;11.23;6.90;;;7.80;79.20;;;;;;5032702;28;20021;-84
2022/01/19 03:51:25;;;;;;;9.13;6.65;;;7.80;79.20;;;;;;5015045;28;20382;-84
2022/01/19 03:53:53;;;;;;;11.45;7.07;;;7.80;79.20;;;;;;5038412;28;20029;-85
2022/01/19 03:56:19;;;;;;;10.18;7.18;;;7.70;79.10;;;;;;5033436;28;20093;-84
2022/01/19 03:58:45;;;;;;;13.20;7.95;;;7.70;79.10;;;;;;5032807;28;20043;-85
2022/01/19 04:01:11;;;;;;;11.80;7.82;;;7.70;79.20;;;;;;5032482;28;20026;-86
2022/01/19 04:08:48;;;;;;;10.52;7.47;;;7.60;79.10;;;;;;5029529;28;20033;-84
2022/01/19 04:11:17;;;;;;;10.57;7.28;;;7.60;79.10;;;;;;5015540;28;20017;-84
2022/01/19 04:16:28;;;;;;;10.32;6.88;;;7.60;79.20;;;;;;5046990;28;20480;-88
2022/01/19 04:19:44;;;;;;;10.43;6.78;;;7.50;79.00;;;;;;5032342;28;20030;-84
2022/01/19 04:21:46;;;;;;;10.23;6.82;;;7.50;79.10;;;;;;5026417;28;20508;-85
2022/01/19 04:24:15;;;;;;;8.98;6.85;;;7.50;79.10;;;;;;5016495;28;20040;-84
2022/01/19 04:26:41;;;;;;;10.20;6.95;;;7.40;79.10;;;;;;5033947;28;20128;-85
2022/01/19 04:29:10;;;;;;;10.68;6.80;;;7.40;79.10;;;;;;5018462;28;20025;-84
2022/01/19 04:31:38;;;;;;;11.10;7.05;;;7.40;79.10;;;;;;5017972;28;20422;-85
2022/01/19 04:34:06;;;;;;;10.68;7.22;;;7.40;79.10;;;;;;5033685;28;20068;-84
2022/01/19 04:36:48;;;;;;;10.68;7.63;;;7.40;79.10;;;;;;5033697;28;20075;-83
2022/01/19 05:04:29;;;;;;;8.60;5.82;;;7.10;79.10;;;;;;5047806;28;20083;-85
2022/01/19 05:06:52;;;;;;;9.85;6.18;;;7.10;79.00;;;;;;5030291;28;20033;-84
2022/01/19 05:14:45;;;;;;;9.00;6.13;;;7.00;79.10;;;;;;5031972;28;20117;-84
2022/01/19 05:17:11;;;;;;;9.65;6.28;;;7.00;79.10;;;;;;5029009;28;20017;-84
2022/01/19 05:19:37;;;;;;;10.07;6.75;;;6.90;79.00;;;;;;5015629;28;20103;-84
2022/01/19 05:22:04;;;;;;;10.10;7.05;;;7.00;79.10;;;;;;5032007;28;20057;-84
2022/01/19 05:24:46;;;;;;;9.73;6.82;;;6.90;79.00;;;;;;5031632;28;20463;-83
2022/01/19 05:27:25;;;;;;;9.80;6.47;;;6.90;79.10;;;;;;5031352;28;20030;-82
2022/01/19 05:29:58;;;;;;;11.18;7.15;;;6.90;79.00;;;;;;5035107;28;20014;-82
2022/01/19 05:32:24;;;;;;;9.10;6.70;;;6.90;79.00;;;;;;5015383;28;20030;-85
2022/01/19 05:34:51;;;;;;;9.32;6.18;;;6.80;79.00;;;;;;5013476;28;20084;-84
2022/01/19 05:37:36;;;;;;;9.02;6.00;;;6.80;79.00;;;;;;5032472;28;20172;-85
2022/01/19 05:40:21;;;;;;;10.43;7.43;;;6.80;79.00;;;;;;5045306;28;20044;-85
2022/01/19 05:42:55;;;;;;;9.10;6.68;;;6.80;79.00;;;;;;5014282;28;20108;-86
2022/01/19 05:45:24;;;;;;;9.27;6.50;;;6.80;79.10;;;;;;5031736;28;20025;-84
2022/01/19 05:47:51;;;;;;;8.52;5.97;;;6.80;79.10;;;;;;5031775;28;20047;-85
2022/01/19 05:50:17;;;;;;;10.43;6.70;;;6.70;79.10;;;;;;5030965;28;20087;-84
2022/01/19 05:52:52;;;;;;;8.83;6.27;;;6.70;79.00;;;;;;5013754;28;20353;-85
2022/01/19 05:55:18;;;;;;;9.10;6.53;;;6.70;79.10;;;;;;5028379;28;20462;-83
2022/01/19 05:57:44;;;;;;;8.50;5.85;;;6.70;79.10;;;;;;5010830;28;20513;-83
2022/01/19 06:00:11;;;;;;;9.15;6.13;;;6.70;79.10;;;;;;5026071;28;20029;-84
2022/01/19 06:02:55;;;;;;;8.98;6.85;;;6.70;79.10;;;;;;5031560;28;20040;-85
2022/01/19 06:05:53;;;;;;;8.77;6.35;;;6.70;79.10;;;;;;5030385;28;20051;-85
2022/01/19 06:08:43;;;;;;;8.90;6.30;;;6.70;79.00;;;;;;5029135;28;20037;-84
2022/01/19 06:11:11;;;;;;;10.57;6.85;;;6.70;79.10;;;;;;5033636;28;20116;-82
2022/01/19 06:13:38;;;;;;;10.02;6.85;;;6.60;79.10;;;;;;5049529;28;20127;-83
2022/01/19 06:16:04;;;;;;;9.10;6.47;;;6.70;79.20;;;;;;5007384;28;20125;-83
2022/01/19 06:18:31;;;;;;;10.18;7.15;;;6.60;79.10;;;;;;5014993;28;20028;-86
2022/01/19 06:20:58;;;;;;;9.90;6.80;;;6.60;79.10;;;;;;5017895;28;20026;-84
2022/01/19 06:23:29;;;;;;;9.90;6.63;;;6.60;79.10;;;;;;5015436;28;20083;-85
2022/01/19 06:26:04;;;;;;;9.40;6.63;;;6.60;79.10;;;;;;5016089;28;20076;-82
2022/01/19 06:28:30;;;;;;;11.25;7.10;;;6.60;79.20;;;;;;5030858;28;20021;-82
2022/01/19 06:30:57;;;;;;;11.90;7.88;;;6.60;79.10;;;;;;5031154;28;20029;-85
2022/01/19 06:33:23;;;;;;;8.75;6.53;;;6.60;79.20;;;;;;5015418;28;20199;-84
2022/01/19 06:35:50;;;;;;;10.70;7.03;;;6.60;79.20;;;;;;5015142;28;20036;-83
2022/01/19 06:38:29;;;;;;;11.20;7.45;;;6.60;79.20;;;;;;5031140;28;20230;-86
2022/01/19 06:41:07;;;;;;;11.38;7.38;;;6.60;79.20;;;;;;5017067;28;20044;-85
2022/01/19 06:43:36;;;;;;;9.85;7.47;;;6.60;79.20;;;;;;5031082;28;20030;-84
2022/01/19 06:46:02;;;;;;;13.02;8.20;;;6.50;79.20;;;;;;5031804;28;20454;-85
2022/01/19 06:48:28;;;;;;;11.68;7.80;;;6.60;79.30;;;;;;5015175;28;20052;-83
2022/01/19 06:50:56;;;;;;;10.68;7.30;;;6.50;79.20;;;;;;5031416;28;20036;-84
2022/01/19 06:53:32;;;;;;;10.73;8.13;;;6.60;79.30;;;;;;5016777;28;20083;-87
2022/01/19 06:56:09;;;;;;;10.73;8.13;;;6.50;79.20;;;;;;5002451;28;20121;-84
2022/01/19 06:58:36;;;;;;;11.60;7.80;;;6.50;79.20;;;;;;5022273;28;20026;-83
2022/01/19 07:01:17;;;;;;;11.88;8.02;;;6.60;79.40;;;;;;5010162;28;20034;-84
2022/01/19 07:04:03;;;;;;;12.67;8.67;;;6.50;79.20;;;;;;5029047;28;20858;-83
2022/01/19 07:06:32;;;;;;;12.38;7.80;;;6.50;79.20;;;;;;5030891;28;20476;-84
2022/01/19 07:09:18;;;;;;;12.20;8.98;;;6.50;79.30;;;;;;5032113;28;20060;-83
2022/01/19 07:11:49;;;;;;;11.30;8.25;;;6.60;79.30;;;;;;5023217;28;20068;-83
2022/01/19 07:14:17;;;;;;;13.15;8.68;;;6.50;79.30;;;;;;5014692;28;20114;-84
2022/01/19 07:16:44;;;;;;;13.45;9.68;;;6.50;79.40;;;;;;5006948;28;20037;-83
2022/01/19 07:19:13;;;;;;;12.82;8.50;;;6.50;79.40;;;;;;5031133;28;20063;-83
2022/01/19 07:21:40;;;;;;;12.95;8.73;;;6.50;79.40;;;;;;5031148;28;20030;-84
2022/01/19 07:24:06;;;;;;;12.35;8.85;;;6.50;79.40;;;;;;5011628;28;20030;-83
2022/01/19 07:26:33;;;;;;;12.57;9.15;;;6.50;79.40;;;;;;5018051;28;20112;-84
2022/01/19 07:29:00;;;;;;;12.82;8.60;;;6.50;79.40;;;;;;5032169;28;20025;-85
2022/01/19 07:31:26;;;;;;;12.65;9.10;;;6.50;79.40;;;;;;5031237;28;20062;-84
2022/01/19 07:33:58;;;;;;;13.00;9.00;;;6.50;79.40;;;;;;5016231;28;20083;-84
2022/01/19 07:36:30;;;;;;;12.32;8.82;;;6.50;79.40;;;;;;5002377;28;20145;-86
2022/01/19 07:38:56;;;;;;;13.70;9.13;;;6.60;79.50;;;;;;5012342;28;20030;-84
2022/01/19 07:41:24;;;;;;;13.63;8.98;;;6.50;79.40;;;;;;4980370;28;20022;-84
2022/01/19 07:43:55;;;;;;;12.77;8.90;;;6.50;79.40;;;;;;5027988;28;20155;-85
2022/01/19 07:46:24;;;;;;;13.43;9.05;;;6.50;79.40;;;;;;5048486;28;20049;-85
2022/01/19 07:49:03;;;;;;;13.45;9.15;;;6.60;79.50;;;;;;5032239;28;20049;-85
2022/01/19 07:51:29;;;;;;;14.43;9.50;;;6.60;79.50;;;;;;5031427;28;20025;-84
2022/01/19 07:54:15;;;;;;;13.40;9.18;;;6.50;79.40;;;;;;5043599;28;20030;-84
2022/01/19 07:56:56;;;;;;;13.73;9.07;;;6.50;79.40;;;;;;5032547;28;20079;-84
2022/01/19 07:59:28;;;;;;;13.73;9.05;;;6.50;79.40;;;;;;5047384;28;20072;-83
2022/01/19 08:01:58;;;;;;;13.90;9.32;;;6.60;79.50;;;;;;5031699;28;20428;-83
2022/01/19 08:04:42;;;;;;;12.48;8.63;;;6.50;79.50;;;;;;5031669;28;20111;-84
2022/01/19 08:07:10;;;;;;;14.57;9.15;;;6.60;79.50;;;;;;5030872;28;20032;-82
2022/01/19 08:09:36;;;;;;;12.90;8.95;;;6.60;79.50;;;;;;5030001;28;20462;-82
2022/01/19 08:12:04;;;;;;;12.35;8.20;;;6.60;79.60;;;;;;5013922;28;20053;-84
2022/01/19 08:14:30;;;;;;;14.55;9.38;;;6.60;79.60;;;;;;5018626;28;20025;-86
2022/01/19 08:16:58;;;;;;;12.95;9.43;;;6.60;79.60;;;;;;5030625;28;20025;-82
2022/01/19 08:19:28;;;;;;;13.85;9.23;;;6.60;79.60;;;;;;5032145;28;20081;-82
2022/01/19 08:21:54;;;;;;;13.20;9.27;;;6.60;79.60;;;;;;5033801;28;20037;-83
2022/01/19 08:24:20;;;;;;;12.93;9.25;;;6.60;79.60;;;;;;5010398;28;20430;-81
2022/01/19 08:26:50;;;;;;;12.07;8.52;;;6.60;79.60;;;;;;5016731;28;20064;-82
2022/01/19 08:29:21;;;;;;;14.85;9.43;;;6.60;79.50;;;;;;5033081;28;20033;-81
2022/01/19 08:31:47;;;;;;;14.10;9.70;;;6.60;79.50;;;;;;5032910;28;20037;-82
2022/01/19 08:34:33;;;;;;;13.55;8.75;;;6.60;79.60;;;;;;5039626;28;20029;-81
2022/01/19 08:37:19;;;;;;;11.88;8.32;;;6.60;79.60;;;;;;4995878;28;20029;-82
2022/01/19 08:39:53;;;;;;;16.65;10.80;;;6.60;79.50;;;;;;5041966;28;20045;-84
2022/01/19 08:42:19;;;;;;;13.15;8.40;;;6.60;79.60;;;;;;5017751;28;20025;-83
2022/01/19 08:44:45;;;;;;;12.48;8.52;;;6.60;79.60;;;;;;5017000;28;20060;-81
2022/01/19 08:47:23;;;;;;;11.90;8.25;;;6.60;79.70;;;;;;5025586;28;20136;-81
2022/01/19 08:50:10;;;;;;;13.63;9.10;;;6.60;79.60;;;;;;5029319;28;20034;-80
2022/01/19 08:52:47;;;;;;;12.27;8.93;;;6.60;79.60;;;;;;5032785;28;20041;-81
2022/01/19 08:55:24;;;;;;;13.45;9.02;;;6.60;79.60;;;;;;5016601;28;20532;-80
2022/01/19 08:57:52;;;;;;;11.95;8.60;;;6.60;79.60;;;;;;5029172;28;20049;-85
2022/01/19 09:00:24;;;;;;;12.38;8.48;;;6.60;79.70;;;;;;5048993;28;20033;-93
2022/01/19 09:03:09;;;;;;;;;;;;;;;;;;;;;
2022/01/19 09:05:48;;;;;;;12.68;9.05;;;6.60;79.70;;;;;;5044472;28;20546;-87
2022/01/19 09:08:14;;;;;;;12.93;8.02;;;6.60;79.60;;;;;;5017862;28;20037;-87
2022/01/19 09:10:50;;;;;;;12.82;8.68;;;6.60;79.60;;;;;;5031843;28;20087;-87
2022/01/19 09:13:19;;;;;;;11.95;9.07;;;6.60;79.70;;;;;;5023887;28;20080;-87
2022/01/19 09:16:02;;;;;;;12.15;9.43;;;6.60;79.90;;;;;;5015298;28;20049;-87
2022/01/19 09:18:41;;;;;;;12.65;9.20;;;6.60;79.70;;;;;;5018382;28;20044;-88
2022/01/19 09:21:07;;;;;;;12.50;8.70;;;6.70;79.80;;;;;;5018094;28;20103;-88
2022/01/19 09:23:45;;;;;;;13.13;8.98;;;6.60;79.70;;;;;;5014757;28;20355;-88
2022/01/19 09:26:19;;;;;;;10.93;8.00;;;6.60;79.70;;;;;;5017690;28;20022;-90
2022/01/19 09:28:48;;;;;;;11.27;8.35;;;6.60;79.70;;;;;;5027541;28;20494;-88
2022/01/19 09:31:19;;;;;;;12.20;9.35;;;6.60;79.70;;;;;;5034184;28;20017;-88
2022/01/19 09:34:08;;;;;;;13.60;9.55;;;6.60;79.70;;;;;;5035143;28;20116;-88
2022/01/19 09:36:51;;;;;;;11.52;8.30;;;6.70;79.80;;;;;;5034507;28;20028;-88
2022/01/19 09:39:35;;;;;;;;;;;;;;;;;;;;;
2022/01/19 09:42:04;;;;;;;12.15;9.45;;;6.70;79.80;;;;;;5034678;28;20026;-88
2022/01/19 09:44:37;;;;;;;11.75;8.57;;;6.70;79.80;;;;;;5034312;28;20040;-88
2022/01/19 09:47:07;;;;;;;11.38;8.20;;;6.70;79.80;;;;;;5018628;28;20025;-88
2022/01/19 09:49:48;;;;;;;11.07;7.97;;;6.70;79.80;;;;;;5034970;28;20363;-88
2022/01/19 09:52:16;;;;;;;12.00;8.45;;;6.70;79.80;;;;;;5016162;28;20039;-88
2022/01/19 09:54:44;;;;;;;11.75;8.25;;;6.70;79.80;;;;;;5016098;28;20039;-82
2022/01/19 09:57:28;;;;;;;11.18;7.88;;;6.70;79.80;;;;;;5032500;28;20453;-85
2022/01/19 10:00:00;;;;;;;12.82;8.77;;;6.70;79.90;;;;;;5016697;28;20040;-84
2022/01/19 10:02:32;;;;;;;11.20;8.45;;;6.70;79.80;;;;;;5023618;28;20060;-85
2022/01/19 10:05:10;;;;;;;11.20;8.40;;;6.70;79.80;;;;;;5025333;28;20081;-85
2022/01/19 10:07:41;;;;;;;11.80;8.48;;;6.70;79.90;;;;;;5032778;28;20029;-84
2022/01/19 10:10:11;;;;;;;10.98;8.15;;;6.70;79.80;;;;;;5032423;28;20036;-84
2022/01/19 10:18:23;;;;;;;10.93;7.72;;;6.70;79.80;;;;;;5027031;28;20029;-83
2022/01/19 10:21:12;;;;;;;9.95;7.70;;;6.70;79.80;;;;;;5032001;28;20037;-84
2022/01/19 10:23:50;;;;;;;12.05;8.55;;;6.70;80.00;;;;;;5015211;28;20025;-84
2022/01/19 10:26:36;;;;;;;10.20;7.43;;;6.70;79.90;;;;;;5016243;28;20422;-83
2022/01/19 10:29:13;;;;;;;11.57;8.40;;;6.80;80.00;;;;;;5031380;28;20029;-86
2022/01/19 10:32:05;;;;;;;11.02;8.13;;;6.80;79.90;;;;;;5031956;28;20033;-84
2022/01/19 10:34:34;;;;;;;11.13;7.90;;;6.80;80.00;;;;;;5009910;28;20060;-84
2022/01/19 10:37:02;;;;;;;11.05;7.88;;;6.80;79.90;;;;;;5014563;28;20453;-83
2022/01/19 10:39:42;;;;;;;11.38;8.68;;;6.70;79.80;;;;;;5011671;28;20046;-84
2022/01/19 10:42:20;;;;;;;11.45;8.70;;;6.80;80.00;;;;;;5006919;28;20083;-83
2022/01/19 10:44:51;;;;;;;10.70;8.50;;;6.80;79.90;;;;;;5015395;28;20119;-86
2022/01/19 10:47:18;;;;;;;9.48;7.18;;;6.80;79.90;;;;;;5024287;28;20021;-83
2022/01/19 10:49:54;;;;;;;11.57;8.23;;;6.90;80.00;;;;;;5014837;28;20392;-84
2022/01/19 10:52:33;;;;;;;10.38;7.03;;;6.80;79.90;;;;;;5041548;28;20045;-84
2022/01/19 10:55:06;;;;;;;12.02;8.38;;;6.90;80.00;;;;;;5030835;28;20033;-87
2022/01/19 10:57:36;;;;;;;12.10;9.50;;;6.80;79.90;;;;;;5046675;28;20048;-83
2022/01/19 11:00:17;;;;;;;12.55;8.65;;;6.90;79.90;;;;;;5030798;28;20048;-83
2022/01/19 11:02:43;;;;;;;11.35;7.88;;;6.90;80.00;;;;;;5013709;28;20060;-83
2022/01/19 11:05:11;;;;;;;12.13;9.05;;;6.90;79.90;;;;;;5013787;28;20083;-83
2022/01/19 11:07:37;;;;;;;10.27;7.57;;;6.90;79.90;;;;;;5031023;28;20034;-82
2022/01/19 11:12:40;;;;;;;11.40;8.35;;;6.90;79.90;;;;;;5027402;28;20431;-82
2022/01/19 11:15:09;;;;;;;10.60;8.20;;;6.90;79.90;;;;;;5014177;28;20553;-82
2022/01/19 11:17:36;;;;;;;13.45;8.57;;;6.90;79.90;;;;;;5025805;28;20021;-83
2022/01/19 11:20:11;;;;;;;10.70;7.93;;;6.90;79.90;;;;;;5028687;28;20034;-86
2022/01/19 11:22:55;;;;;;;;;;;6.90;80.00;;;;;;5032062;28;20430;-85
2022/01/19 11:25:45;;;;;;;10.65;7.38;;;6.90;79.80;;;;;;5040658;28;20385;-85
2022/01/19 11:28:28;;;;;;;10.05;7.32;;;6.90;79.90;;;;;;5031551;28;20029;-86
2022/01/19 11:30:57;;;;;;;9.88;7.68;;;6.90;79.90;;;;;;5031397;28;20490;-87
2022/01/19 11:33:29;;;;;;;11.18;7.75;;;6.90;79.90;;;;;;5014726;28;20044;-84
2022/01/19 11:36:11;;;;;;;10.88;8.20;;;6.90;80.00;;;;;;5015224;28;20108;-85
2022/01/19 11:38:41;;;;;;;9.77;7.55;;;6.90;80.00;;;;;;5027633;28;20029;-85
2022/01/19 11:41:10;;;;;;;10.77;8.18;;;7.00;80.00;;;;;;5029353;28;20033;-88
2022/01/19 11:43:59;;;;;;;11.00;8.05;;;7.00;80.00;;;;;;5032328;28;20087;-84
2022/01/19 11:46:43;;;;;;;10.55;7.72;;;7.00;80.10;;;;;;5053485;28;20030;-87
2022/01/19 11:49:15;;;;;;;11.32;8.00;;;7.00;80.00;;;;;;5026947;28;20045;-88
2022/01/19 11:51:55;;;;;;;10.82;8.40;;;7.00;79.90;;;;;;5017584;28;20030;-83
2022/01/19 11:54:34;;;;;;;10.73;7.85;;;7.00;80.00;;;;;;5032417;28;20034;-84
2022/01/19 11:57:16;;;;;;;11.50;8.25;;;7.00;80.00;;;;;;5011567;28;20040;-88
2022/01/19 12:00:14;;;;;;;11.20;8.45;;;7.00;79.90;;;;;;5041504;28;20036;-81
2022/01/19 12:02:48;;;;;;;10.93;8.38;;;7.00;80.00;;;;;;5018430;28;20128;-82
2022/01/19 12:05:29;;;;;;;10.55;8.30;;;7.10;80.00;;;;;;5034886;28;20121;-83
2022/01/19 12:07:59;;;;;;;10.88;8.02;;;7.10;80.00;;;;;;5051672;28;20148;-81
2022/01/19 12:10:32;;;;;;;12.20;8.95;;;7.00;79.90;;;;;;5034692;28;20060;-85
2022/01/19 12:13:28;;;;;;;11.75;8.82;;;7.10;80.00;;;;;;5035766;28;20044;-84
2022/01/19 12:16:29;;;;;;;11.00;7.82;;;7.10;80.10;;;;;;5032426;28;20450;-85
2022/01/19 12:18:53;;;;;;;11.57;8.32;;;7.10;80.00;;;;;;5044156;28;20040;-85
2022/01/19 12:21:22;;;;;;;11.30;8.45;;;7.10;80.00;;;;;;5018252;28;20182;-86
2022/01/19 12:23:49;;;;;;;12.18;9.02;;;7.10;80.00;;;;;;5034799;28;20033;-87
2022/01/19 12:26:15;;;;;;;10.95;8.57;;;7.10;80.00;;;;;;5013161;28;20033;-86
2022/01/19 12:28:54;;;;;;;12.23;8.57;;;7.20;80.00;;;;;;5050707;28;20450;-87
2022/01/19 12:31:30;;;;;;;11.80;8.70;;;7.20;80.10;;;;;;5043127;28;20131;-86
2022/01/19 12:34:10;;;;;;;12.95;9.27;;;7.20;80.00;;;;;;5035001;28;20026;-85
2022/01/19 12:36:58;;;;;;;11.43;8.55;;;7.20;80.00;;;;;;5034704;28;20100;-86
2022/01/19 12:39:28;;;;;;;11.93;9.02;;;7.20;80.10;;;;;;5051429;28;20098;-85
2022/01/19 12:42:03;;;;;;;12.27;9.57;;;7.20;80.00;;;;;;5017885;28;20486;-86
2022/01/19 12:44:35;;;;;;;12.35;9.23;;;7.20;80.00;;;;;;5016245;28;20098;-81
2022/01/19 12:47:25;;;;;;;12.02;9.43;;;7.20;80.00;;;;;;5015297;28;20100;-84
2022/01/19 12:49:56;;;;;;;10.63;7.47;;;7.30;80.00;;;;;;5029486;28;20088;-82
2022/01/19 12:52:24;;;;;;;11.90;9.00;;;7.30;80.00;;;;;;5006048;28;20105;-83
2022/01/19 12:54:51;;;;;;;11.65;8.38;;;7.30;80.00;;;;;;5031338;28;20385;-84
2022/01/19 12:57:18;;;;;;;12.82;9.40;;;7.30;80.00;;;;;;5033662;28;20108;-82
2022/01/19 12:59:47;;;;;;;12.68;9.05;;;7.30;80.00;;;;;;5000049;28;20034;-83
2022/01/19 13:02:16;;;;;;;12.60;9.57;;;7.30;80.00;;;;;;5033598;28;20117;-83
2022/01/19 13:04:46;;;;;;;12.45;9.02;;;7.30;80.00;;;;;;5032499;28;20083;-84
2022/01/19 13:07:18;;;;;;;12.25;9.52;;;7.40;80.00;;;;;;5016493;28;20489;-83
2022/01/19 13:10:22;;;;;;;11.50;9.18;;;7.40;80.00;;;;;;5015997;28;20481;-86
2022/01/19 13:12:56;;;;;;;11.98;8.98;;;7.40;80.10;;;;;;5048559;28;20034;-83
2022/01/19 13:15:38;;;;;;;12.43;9.25;;;7.40;79.90;;;;;;5016929;28;20025;-82
2022/01/19 13:18:04;;;;;;;11.90;8.73;;;7.40;80.00;;;;;;5033990;28;20083;-82
2022/01/19 13:20:31;;;;;;;12.55;9.32;;;7.40;79.90;;;;;;5015881;28;20406;-84
2022/01/19 13:22:59;;;;;;;11.90;9.27;;;7.40;79.90;;;;;;5048696;28;20026;-82
2022/01/19 13:25:28;;;;;;;12.40;9.40;;;7.40;79.90;;;;;;5036668;28;20080;-83
2022/01/19 13:27:57;;;;;;;12.23;9.75;;;7.50;79.90;;;;;;5023981;28;20033;-83
2022/01/19 13:30:27;;;;;;;13.63;9.80;;;7.50;80.00;;;;;;5033064;28;20045;-85
2022/01/19 13:33:08;;;;;;;11.25;8.50;;;7.50;79.90;;;;;;5032865;28;20406;-85
2022/01/19 13:35:34;;;;;;;14.77;9.48;;;7.50;79.90;;;;;;5033118;28;20069;-85
2022/01/19 13:38:03;;;;;;;12.65;9.57;;;7.50;79.80;;;;;;5016774;28;20135;-85
2022/01/19 13:40:31;;;;;;;13.40;9.38;;;7.60;79.90;;;;;;5016649;28;20041;-86
2022/01/19 13:43:04;;;;;;;14.43;10.27;;;7.60;79.90;;;;;;5017043;28;20021;-84
2022/01/19 13:48:39;;;;;;;13.15;9.75;;;7.60;79.90;;;;;;5019755;28;20022;-84
2022/01/19 13:51:18;;;;;;;12.60;9.38;;;7.60;79.80;;;;;;5028539;28;20048;-85
2022/01/19 13:53:49;;;;;;;12.30;9.43;;;7.60;79.80;;;;;;5026348;28;20034;-87
2022/01/19 13:56:24;;;;;;;12.88;9.63;;;7.60;79.80;;;;;;5033181;28;20025;-85
2022/01/19 13:58:58;;;;;;;13.40;9.38;;;7.70;79.90;;;;;;5031405;28;20064;-84
2022/01/19 14:02:02;;;;;;;13.50;9.90;;;7.60;79.80;;;;;;5032383;28;20041;-86
2022/01/19 14:04:34;;;;;;;12.55;9.15;;;7.60;79.90;;;;;;5016071;28;20112;-82
2022/01/19 14:07:04;;;;;;;13.05;9.77;;;7.70;79.80;;;;;;5030622;28;20053;-81
2022/01/19 14:09:31;;;;;;;13.50;9.90;;;7.70;79.90;;;;;;5014774;28;20029;-81
2022/01/19 14:12:10;;;;;;;15.45;11.07;;;7.70;79.90;;;;;;5013676;28;20497;-83
2022/01/19 14:14:55;;;;;;;13.93;10.48;;;7.70;79.90;;;;;;5030856;28;20030;-82
2022/01/19 14:17:30;;;;;;;13.65;9.88;;;7.70;79.90;;;;;;5010155;28;20022;-81
2022/01/19 14:19:57;;;;;;;13.00;9.98;;;7.70;79.90;;;;;;5028706;28;20029;-81
2022/01/19 14:22:25;;;;;;;12.48;10.05;;;7.70;79.70;;;;;;5030568;28;20108;-81
2022/01/19 14:24:59;;;;;;;16.23;11.55;;;7.70;79.80;;;;;;5006995;28;20025;-82
2022/01/19 14:27:24;;;;;;;12.70;10.25;;;7.70;79.80;;;;;;5041473;28;20113;-82
2022/01/19 14:29:55;;;;;;;13.77;10.18;;;7.70;79.70;;;;;;5015563;28;20033;-82
2022/01/19 14:32:31;;;;;;;13.48;9.85;;;7.80;79.80;;;;;;5031842;28;20029;-82
2022/01/19 14:34:57;;;;;;;13.98;10.80;;;7.80;79.70;;;;;;5014666;28;20056;-81
2022/01/19 14:37:23;;;;;;;15.30;11.60;;;7.80;79.70;;;;;;5030738;28;20034;-82
2022/01/19 14:40:06;;;;;;;14.95;10.65;;;7.80;79.70;;;;;;5031063;28;20051;-82
2022/01/19 14:42:36;;;;;;;13.98;10.70;;;7.80;79.80;;;;;;5047506;28;20474;-82
2022/01/19 14:45:28;;;;;;;13.25;10.13;;;7.80;79.70;;;;;;5014728;28;20025;-82
2022/01/19 14:47:57;;;;;;;13.63;10.13;;;7.80;79.90;;;;;;5042391;28;20025;-83
2022/01/19 14:50:27;;;;;;;14.55;11.50;;;7.80;79.70;;;;;;5028321;28;20029;-81